sensor_id;sensor_type;location;lat;lon;timestamp;P1;durP1;ratioP1;P2;durP2;ratioP2
19225;SDS011;9747;48.536;12.522;2023-04-12T00:00:14;0.80;;;0.80;;
19225;SDS011;9747;48.536;12.522;2023-04-12T00:02:42;0.93;;;0.93;;
19225;SDS011;9747;48.536;12.522;2023-04-12T00:05:09;0.80;;;0.80;;
19225;SDS011;9747;48.536;12.522;2023-04-12T00:07:38;0.90;;;0.85;;
19225;SDS011;9747;48.536;12.522;2023-04-12T00:10:08;0.80;;;0.80;;
19225;SDS011;9747;48.536;12.522;2023-04-12T00:12:36;1.08;;;0.93;;
19225;SDS011;9747;48.536;12.522;2023-04-12T00:15:05;0.98;;;0.80;;
19225;SDS011;9747;48.536;12.522;2023-04-12T00:17:33;1.10;;;1.00;;
19225;SDS011;9747;48.536;12.522;2023-04-12T00:20:01;0.90;;;0.90;;
19225;SDS011;9747;48.536;12.522;2023-04-12T00:22:30;1.08;;;0.85;;
19225;SDS011;9747;48.536;12.522;2023-04-12T00:24:57;1.10;;;1.00;;
19225;SDS011;9747;48.536;12.522;2023-04-12T00:27:26;1.10;;;1.10;;
19225;SDS011;9747;48.536;12.522;2023-04-12T00:29:53;0.95;;;0.95;;
19225;SDS011;9747;48.536;12.522;2023-04-12T00:32:20;1.10;;;1.00;;
19225;SDS011;9747;48.536;12.522;2023-04-12T00:34:49;1.00;;;1.00;;
19225;SDS011;9747;48.536;12.522;2023-04-12T00:37:19;0.80;;;0.80;;
19225;SDS011;9747;48.536;12.522;2023-04-12T00:39:46;1.00;;;1.00;;
19225;SDS011;9747;48.536;12.522;2023-04-12T00:42:14;0.90;;;0.90;;
19225;SDS011;9747;48.536;12.522;2023-04-12T00:44:42;1.23;;;0.90;;
19225;SDS011;9747;48.536;12.522;2023-04-12T00:47:10;1.13;;;1.00;;
19225;SDS011;9747;48.536;12.522;2023-04-12T00:49:37;1.10;;;1.10;;
19225;SDS011;9747;48.536;12.522;2023-04-12T00:52:06;1.10;;;1.10;;
19225;SDS011;9747;48.536;12.522;2023-04-12T00:54:35;1.02;;;1.02;;
19225;SDS011;9747;48.536;12.522;2023-04-12T00:57:04;0.93;;;0.90;;
19225;SDS011;9747;48.536;12.522;2023-04-12T00:59:31;1.05;;;1.05;;
19225;SDS011;9747;48.536;12.522;2023-04-12T01:02:00;1.10;;;1.10;;
19225;SDS011;9747;48.536;12.522;2023-04-12T01:04:28;1.00;;;1.00;;
19225;SDS011;9747;48.536;12.522;2023-04-12T01:07:01;1.10;;;1.00;;
19225;SDS011;9747;48.536;12.522;2023-04-12T01:09:49;1.30;;;0.98;;
19225;SDS011;9747;48.536;12.522;2023-04-12T01:12:24;1.00;;;1.00;;
19225;SDS011;9747;48.536;12.522;2023-04-12T01:15:03;1.10;;;1.00;;
19225;SDS011;9747;48.536;12.522;2023-04-12T01:17:37;0.80;;;0.80;;
19225;SDS011;9747;48.536;12.522;2023-04-12T01:20:10;0.98;;;0.98;;
19225;SDS011;9747;48.536;12.522;2023-04-12T01:22:47;1.00;;;1.00;;
19225;SDS011;9747;48.536;12.522;2023-04-12T01:25:36;1.08;;;1.08;;
19225;SDS011;9747;48.536;12.522;2023-04-12T01:28:08;1.40;;;1.00;;
19225;SDS011;9747;48.536;12.522;2023-04-12T01:30:37;1.00;;;1.00;;
19225;SDS011;9747;48.536;12.522;2023-04-12T01:33:05;1.27;;;1.20;;
19225;SDS011;9747;48.536;12.522;2023-04-12T01:35:37;1.23;;;1.05;;
19225;SDS011;9747;48.536;12.522;2023-04-12T01:38:06;1.27;;;1.05;;
19225;SDS011;9747;48.536;12.522;2023-04-12T01:40:35;1.05;;;1.05;;
19225;SDS011;9747;48.536;12.522;2023-04-12T01:43:05;0.90;;;0.90;;
19225;SDS011;9747;48.536;12.522;2023-04-12T01:45:35;1.20;;;1.10;;
19225;SDS011;9747;48.536;12.522;2023-04-12T01:48:03;1.25;;;1.25;;
19225;SDS011;9747;48.536;12.522;2023-04-12T01:50:34;1.38;;;1.27;;
19225;SDS011;9747;48.536;12.522;2023-04-12T01:53:10;1.10;;;1.10;;
19225;SDS011;9747;48.536;12.522;2023-04-12T01:55:42;1.02;;;1.02;;
19225;SDS011;9747;48.536;12.522;2023-04-12T01:58:12;1.33;;;1.23;;
19225;SDS011;9747;48.536;12.522;2023-04-12T02:00:42;1.15;;;1.10;;
19225;SDS011;9747;48.536;12.522;2023-04-12T02:03:10;1.30;;;1.20;;
19225;SDS011;9747;48.536;12.522;2023-04-12T02:05:38;1.05;;;1.05;;
19225;SDS011;9747;48.536;12.522;2023-04-12T02:08:06;1.20;;;1.20;;
19225;SDS011;9747;48.536;12.522;2023-04-12T02:10:33;1.10;;;1.10;;
19225;SDS011;9747;48.536;12.522;2023-04-12T02:13:04;1.00;;;1.00;;
19225;SDS011;9747;48.536;12.522;2023-04-12T02:15:32;1.10;;;1.10;;
19225;SDS011;9747;48.536;12.522;2023-04-12T02:18:01;1.25;;;1.20;;
19225;SDS011;9747;48.536;12.522;2023-04-12T02:20:28;1.10;;;1.10;;
19225;SDS011;9747;48.536;12.522;2023-04-12T02:22:56;1.30;;;1.15;;
19225;SDS011;9747;48.536;12.522;2023-04-12T02:25:24;1.20;;;1.20;;
19225;SDS011;9747;48.536;12.522;2023-04-12T02:27:52;1.05;;;1.00;;
19225;SDS011;9747;48.536;12.522;2023-04-12T02:30:19;1.10;;;1.10;;
19225;SDS011;9747;48.536;12.522;2023-04-12T02:32:52;1.10;;;1.10;;
19225;SDS011;9747;48.536;12.522;2023-04-12T02:35:28;0.90;;;0.90;;
19225;SDS011;9747;48.536;12.522;2023-04-12T02:38:03;1.30;;;1.13;;
19225;SDS011;9747;48.536;12.522;2023-04-12T02:40:33;1.10;;;1.10;;
19225;SDS011;9747;48.536;12.522;2023-04-12T02:43:04;1.00;;;1.00;;
19225;SDS011;9747;48.536;12.522;2023-04-12T02:45:33;1.20;;;1.10;;
19225;SDS011;9747;48.536;12.522;2023-04-12T02:48:03;1.10;;;1.10;;
19225;SDS011;9747;48.536;12.522;2023-04-12T02:50:31;1.20;;;1.10;;
19225;SDS011;9747;48.536;12.522;2023-04-12T02:53:08;0.90;;;0.90;;
19225;SDS011;9747;48.536;12.522;2023-04-12T02:55:36;1.00;;;1.00;;
19225;SDS011;9747;48.536;12.522;2023-04-12T02:58:05;1.10;;;1.10;;
19225;SDS011;9747;48.536;12.522;2023-04-12T03:00:40;0.93;;;0.93;;
19225;SDS011;9747;48.536;12.522;2023-04-12T03:03:10;1.02;;;1.02;;
19225;SDS011;9747;48.536;12.522;2023-04-12T03:05:38;0.90;;;0.90;;
19225;SDS011;9747;48.536;12.522;2023-04-12T03:08:07;1.35;;;1.10;;
19225;SDS011;9747;48.536;12.522;2023-04-12T03:10:38;1.50;;;1.40;;
19225;SDS011;9747;48.536;12.522;2023-04-12T03:13:06;1.05;;;1.05;;
19225;SDS011;9747;48.536;12.522;2023-04-12T03:15:36;0.90;;;0.90;;
19225;SDS011;9747;48.536;12.522;2023-04-12T03:18:03;0.90;;;0.90;;
19225;SDS011;9747;48.536;12.522;2023-04-12T03:20:42;0.98;;;0.98;;
19225;SDS011;9747;48.536;12.522;2023-04-12T03:23:10;1.02;;;1.02;;
19225;SDS011;9747;48.536;12.522;2023-04-12T03:25:42;1.15;;;1.10;;
19225;SDS011;9747;48.536;12.522;2023-04-12T03:28:28;1.20;;;1.20;;
19225;SDS011;9747;48.536;12.522;2023-04-12T03:30:57;1.00;;;1.00;;
19225;SDS011;9747;48.536;12.522;2023-04-12T03:33:33;1.15;;;1.15;;
19225;SDS011;9747;48.536;12.522;2023-04-12T03:36:05;1.00;;;1.00;;
19225;SDS011;9747;48.536;12.522;2023-04-12T03:38:34;1.38;;;1.38;;
19225;SDS011;9747;48.536;12.522;2023-04-12T03:41:04;1.10;;;1.10;;
19225;SDS011;9747;48.536;12.522;2023-04-12T03:43:35;1.25;;;1.20;;
19225;SDS011;9747;48.536;12.522;2023-04-12T03:46:13;1.42;;;1.38;;
19225;SDS011;9747;48.536;12.522;2023-04-12T03:48:41;1.10;;;1.10;;
19225;SDS011;9747;48.536;12.522;2023-04-12T03:51:11;1.10;;;1.10;;
19225;SDS011;9747;48.536;12.522;2023-04-12T03:53:42;1.02;;;1.02;;
19225;SDS011;9747;48.536;12.522;2023-04-12T03:56:13;1.17;;;1.17;;
19225;SDS011;9747;48.536;12.522;2023-04-12T03:58:45;1.20;;;1.20;;
19225;SDS011;9747;48.536;12.522;2023-04-12T04:01:14;1.40;;;1.30;;
19225;SDS011;9747;48.536;12.522;2023-04-12T04:03:42;1.23;;;1.23;;
19225;SDS011;9747;48.536;12.522;2023-04-12T04:06:19;1.25;;;1.25;;
19225;SDS011;9747;48.536;12.522;2023-04-12T04:08:47;1.60;;;1.50;;
19225;SDS011;9747;48.536;12.522;2023-04-12T04:11:14;1.35;;;1.30;;
19225;SDS011;9747;48.536;12.522;2023-04-12T04:13:47;1.40;;;1.30;;
19225;SDS011;9747;48.536;12.522;2023-04-12T04:16:18;1.02;;;1.02;;
19225;SDS011;9747;48.536;12.522;2023-04-12T04:18:47;1.13;;;1.13;;
19225;SDS011;9747;48.536;12.522;2023-04-12T04:21:19;1.20;;;1.20;;
19225;SDS011;9747;48.536;12.522;2023-04-12T04:23:53;1.48;;;1.38;;
19225;SDS011;9747;48.536;12.522;2023-04-12T04:26:23;1.23;;;1.23;;
19225;SDS011;9747;48.536;12.522;2023-04-12T04:29:03;1.25;;;1.15;;
19225;SDS011;9747;48.536;12.522;2023-04-12T04:31:36;1.38;;;1.27;;
19225;SDS011;9747;48.536;12.522;2023-04-12T04:34:05;1.40;;;1.40;;
19225;SDS011;9747;48.536;12.522;2023-04-12T04:36:40;1.40;;;1.30;;
19225;SDS011;9747;48.536;12.522;2023-04-12T04:39:08;1.35;;;1.23;;
19225;SDS011;9747;48.536;12.522;2023-04-12T04:41:41;1.40;;;1.30;;
19225;SDS011;9747;48.536;12.522;2023-04-12T04:44:31;1.20;;;1.20;;
19225;SDS011;9747;48.536;12.522;2023-04-12T04:47:03;1.00;;;1.00;;
19225;SDS011;9747;48.536;12.522;2023-04-12T04:49:31;1.50;;;1.40;;
19225;SDS011;9747;48.536;12.522;2023-04-12T04:52:05;1.20;;;1.20;;
19225;SDS011;9747;48.536;12.522;2023-04-12T04:54:33;1.58;;;1.58;;
19225;SDS011;9747;48.536;12.522;2023-04-12T04:57:01;1.20;;;1.20;;
19225;SDS011;9747;48.536;12.522;2023-04-12T04:59:30;1.13;;;1.13;;
19225;SDS011;9747;48.536;12.522;2023-04-12T05:02:10;1.23;;;1.15;;
19225;SDS011;9747;48.536;12.522;2023-04-12T05:04:38;1.23;;;1.23;;
19225;SDS011;9747;48.536;12.522;2023-04-12T05:07:08;1.30;;;1.30;;
19225;SDS011;9747;48.536;12.522;2023-04-12T05:09:38;1.17;;;1.17;;
19225;SDS011;9747;48.536;12.522;2023-04-12T05:12:05;1.20;;;1.20;;
19225;SDS011;9747;48.536;12.522;2023-04-12T05:14:39;1.23;;;1.23;;
19225;SDS011;9747;48.536;12.522;2023-04-12T05:17:13;1.30;;;1.30;;
19225;SDS011;9747;48.536;12.522;2023-04-12T05:19:41;1.30;;;1.30;;
19225;SDS011;9747;48.536;12.522;2023-04-12T05:22:11;1.50;;;1.30;;
19225;SDS011;9747;48.536;12.522;2023-04-12T05:24:38;1.20;;;1.20;;
19225;SDS011;9747;48.536;12.522;2023-04-12T05:27:06;1.40;;;1.30;;
19225;SDS011;9747;48.536;12.522;2023-04-12T05:29:33;1.20;;;1.10;;
19225;SDS011;9747;48.536;12.522;2023-04-12T05:32:02;1.10;;;1.10;;
19225;SDS011;9747;48.536;12.522;2023-04-12T05:34:30;1.30;;;1.30;;
19225;SDS011;9747;48.536;12.522;2023-04-12T05:36:57;2.30;;;1.30;;
19225;SDS011;9747;48.536;12.522;2023-04-12T05:39:31;1.20;;;1.20;;
19225;SDS011;9747;48.536;12.522;2023-04-12T05:42:00;1.67;;;1.40;;
19225;SDS011;9747;48.536;12.522;2023-04-12T05:44:27;1.20;;;1.20;;
19225;SDS011;9747;48.536;12.522;2023-04-12T05:46:54;1.50;;;1.02;;
19225;SDS011;9747;48.536;12.522;2023-04-12T05:49:22;1.17;;;1.17;;
19225;SDS011;9747;48.536;12.522;2023-04-12T05:51:50;1.20;;;1.20;;
19225;SDS011;9747;48.536;12.522;2023-04-12T05:54:20;1.00;;;1.00;;
19225;SDS011;9747;48.536;12.522;2023-04-12T05:56:51;1.27;;;1.17;;
19225;SDS011;9747;48.536;12.522;2023-04-12T05:59:20;1.20;;;1.10;;
19225;SDS011;9747;48.536;12.522;2023-04-12T06:01:47;1.00;;;1.00;;
19225;SDS011;9747;48.536;12.522;2023-04-12T06:04:17;1.10;;;1.10;;
19225;SDS011;9747;48.536;12.522;2023-04-12T06:06:45;1.48;;;1.33;;
19225;SDS011;9747;48.536;12.522;2023-04-12T06:09:13;1.30;;;1.20;;
19225;SDS011;9747;48.536;12.522;2023-04-12T06:11:41;1.13;;;1.13;;
19225;SDS011;9747;48.536;12.522;2023-04-12T06:14:10;1.00;;;1.00;;
19225;SDS011;9747;48.536;12.522;2023-04-12T06:16:38;1.98;;;1.00;;
19225;SDS011;9747;48.536;12.522;2023-04-12T06:19:05;1.02;;;1.00;;
19225;SDS011;9747;48.536;12.522;2023-04-12T06:21:33;1.20;;;1.20;;
19225;SDS011;9747;48.536;12.522;2023-04-12T06:24:01;0.90;;;0.90;;
19225;SDS011;9747;48.536;12.522;2023-04-12T06:26:29;0.95;;;0.95;;
19225;SDS011;9747;48.536;12.522;2023-04-12T06:28:56;1.20;;;1.20;;
19225;SDS011;9747;48.536;12.522;2023-04-12T06:31:26;1.40;;;1.10;;
19225;SDS011;9747;48.536;12.522;2023-04-12T06:33:54;1.00;;;1.00;;
19225;SDS011;9747;48.536;12.522;2023-04-12T06:36:22;1.15;;;1.15;;
19225;SDS011;9747;48.536;12.522;2023-04-12T06:38:49;1.00;;;1.00;;
19225;SDS011;9747;48.536;12.522;2023-04-12T06:41:16;1.10;;;1.10;;
19225;SDS011;9747;48.536;12.522;2023-04-12T06:43:44;0.80;;;0.80;;
19225;SDS011;9747;48.536;12.522;2023-04-12T06:46:11;1.08;;;1.00;;
19225;SDS011;9747;48.536;12.522;2023-04-12T06:48:45;1.00;;;1.00;;
19225;SDS011;9747;48.536;12.522;2023-04-12T06:51:13;1.10;;;1.10;;
19225;SDS011;9747;48.536;12.522;2023-04-12T06:53:40;1.10;;;1.10;;
19225;SDS011;9747;48.536;12.522;2023-04-12T06:56:07;1.08;;;1.00;;
19225;SDS011;9747;48.536;12.522;2023-04-12T06:58:35;1.45;;;1.08;;
19225;SDS011;9747;48.536;12.522;2023-04-12T07:01:05;1.08;;;1.00;;
19225;SDS011;9747;48.536;12.522;2023-04-12T07:03:34;2.22;;;1.23;;
19225;SDS011;9747;48.536;12.522;2023-04-12T07:06:05;2.05;;;1.17;;
19225;SDS011;9747;48.536;12.522;2023-04-12T07:08:33;1.77;;;1.02;;
19225;SDS011;9747;48.536;12.522;2023-04-12T07:11:02;1.10;;;1.00;;
19225;SDS011;9747;48.536;12.522;2023-04-12T07:13:30;1.65;;;1.00;;
19225;SDS011;9747;48.536;12.522;2023-04-12T07:15:57;1.08;;;1.08;;
19225;SDS011;9747;48.536;12.522;2023-04-12T07:18:25;1.30;;;1.20;;
19225;SDS011;9747;48.536;12.522;2023-04-12T07:20:53;1.77;;;1.00;;
19225;SDS011;9747;48.536;12.522;2023-04-12T07:23:23;3.38;;;1.17;;
19225;SDS011;9747;48.536;12.522;2023-04-12T07:25:51;1.20;;;1.00;;
19225;SDS011;9747;48.536;12.522;2023-04-12T07:28:19;1.45;;;1.08;;
19225;SDS011;9747;48.536;12.522;2023-04-12T07:30:46;2.88;;;1.35;;
19225;SDS011;9747;48.536;12.522;2023-04-12T07:33:14;0.95;;;0.95;;
19225;SDS011;9747;48.536;12.522;2023-04-12T07:35:41;2.13;;;0.98;;
19225;SDS011;9747;48.536;12.522;2023-04-12T07:38:09;1.33;;;1.05;;
19225;SDS011;9747;48.536;12.522;2023-04-12T07:40:37;0.82;;;0.82;;
19225;SDS011;9747;48.536;12.522;2023-04-12T07:43:05;1.25;;;1.10;;
19225;SDS011;9747;48.536;12.522;2023-04-12T07:45:34;0.90;;;0.90;;
19225;SDS011;9747;48.536;12.522;2023-04-12T07:48:02;1.48;;;1.10;;
19225;SDS011;9747;48.536;12.522;2023-04-12T07:50:30;1.00;;;1.00;;
19225;SDS011;9747;48.536;12.522;2023-04-12T07:52:58;1.45;;;1.02;;
19225;SDS011;9747;48.536;12.522;2023-04-12T07:55:45;1.95;;;1.00;;
19225;SDS011;9747;48.536;12.522;2023-04-12T07:58:13;1.55;;;1.02;;
19225;SDS011;9747;48.536;12.522;2023-04-12T08:00:41;0.95;;;0.90;;
19225;SDS011;9747;48.536;12.522;2023-04-12T08:03:10;1.95;;;0.90;;
19225;SDS011;9747;48.536;12.522;2023-04-12T08:05:38;1.77;;;1.00;;
19225;SDS011;9747;48.536;12.522;2023-04-12T08:08:06;1.25;;;1.10;;
19225;SDS011;9747;48.536;12.522;2023-04-12T08:10:34;0.80;;;0.80;;
19225;SDS011;9747;48.536;12.522;2023-04-12T08:13:03;1.05;;;0.93;;
19225;SDS011;9747;48.536;12.522;2023-04-12T08:15:31;1.13;;;0.85;;
19225;SDS011;9747;48.536;12.522;2023-04-12T08:17:59;1.42;;;1.00;;
19225;SDS011;9747;48.536;12.522;2023-04-12T08:20:27;1.17;;;1.00;;
19225;SDS011;9747;48.536;12.522;2023-04-12T08:22:55;2.63;;;1.30;;
19225;SDS011;9747;48.536;12.522;2023-04-12T08:25:23;2.28;;;1.33;;
19225;SDS011;9747;48.536;12.522;2023-04-12T08:27:51;1.90;;;1.20;;
19225;SDS011;9747;48.536;12.522;2023-04-12T08:30:20;2.58;;;1.25;;
19225;SDS011;9747;48.536;12.522;2023-04-12T08:32:50;1.95;;;1.00;;
19225;SDS011;9747;48.536;12.522;2023-04-12T08:35:18;1.65;;;1.40;;
19225;SDS011;9747;48.536;12.522;2023-04-12T08:37:46;1.45;;;1.30;;
19225;SDS011;9747;48.536;12.522;2023-04-12T08:40:14;1.15;;;1.15;;
19225;SDS011;9747;48.536;12.522;2023-04-12T08:42:41;1.80;;;1.20;;
19225;SDS011;9747;48.536;12.522;2023-04-12T08:45:10;1.25;;;1.10;;
19225;SDS011;9747;48.536;12.522;2023-04-12T08:47:40;2.35;;;1.17;;
19225;SDS011;9747;48.536;12.522;2023-04-12T08:50:10;1.45;;;1.15;;
19225;SDS011;9747;48.536;12.522;2023-04-12T08:52:39;4.22;;;1.80;;
19225;SDS011;9747;48.536;12.522;2023-04-12T08:55:08;2.42;;;1.20;;
19225;SDS011;9747;48.536;12.522;2023-04-12T08:57:38;1.48;;;1.33;;
19225;SDS011;9747;48.536;12.522;2023-04-12T09:00:07;2.17;;;1.40;;
19225;SDS011;9747;48.536;12.522;2023-04-12T09:02:37;1.80;;;1.30;;
19225;SDS011;9747;48.536;12.522;2023-04-12T09:05:10;2.17;;;1.30;;
19225;SDS011;9747;48.536;12.522;2023-04-12T09:07:38;2.08;;;1.35;;
19225;SDS011;9747;48.536;12.522;2023-04-12T09:10:06;2.63;;;1.30;;
19225;SDS011;9747;48.536;12.522;2023-04-12T09:12:34;2.90;;;1.17;;
19225;SDS011;9747;48.536;12.522;2023-04-12T09:15:10;1.10;;;1.10;;
19225;SDS011;9747;48.536;12.522;2023-04-12T09:17:43;2.03;;;1.30;;
19225;SDS011;9747;48.536;12.522;2023-04-12T09:20:23;1.65;;;1.20;;
19225;SDS011;9747;48.536;12.522;2023-04-12T09:22:51;2.00;;;1.10;;
19225;SDS011;9747;48.536;12.522;2023-04-12T09:25:34;1.55;;;1.10;;
19225;SDS011;9747;48.536;12.522;2023-04-12T09:28:05;1.42;;;1.20;;
19225;SDS011;9747;48.536;12.522;2023-04-12T09:30:45;2.60;;;1.15;;
19225;SDS011;9747;48.536;12.522;2023-04-12T09:33:17;1.17;;;1.05;;
19225;SDS011;9747;48.536;12.522;2023-04-12T09:35:46;1.55;;;1.20;;
19225;SDS011;9747;48.536;12.522;2023-04-12T09:38:15;1.45;;;1.20;;
19225;SDS011;9747;48.536;12.522;2023-04-12T09:40:42;1.38;;;1.08;;
19225;SDS011;9747;48.536;12.522;2023-04-12T09:43:10;2.10;;;1.20;;
19225;SDS011;9747;48.536;12.522;2023-04-12T09:45:37;2.45;;;1.08;;
19225;SDS011;9747;48.536;12.522;2023-04-12T09:48:05;1.10;;;1.10;;
19225;SDS011;9747;48.536;12.522;2023-04-12T09:50:34;2.25;;;0.95;;
19225;SDS011;9747;48.536;12.522;2023-04-12T09:53:02;1.27;;;1.17;;
19225;SDS011;9747;48.536;12.522;2023-04-12T09:55:30;1.42;;;1.30;;
19225;SDS011;9747;48.536;12.522;2023-04-12T09:58:00;1.52;;;0.90;;
19225;SDS011;9747;48.536;12.522;2023-04-12T10:00:31;1.33;;;1.23;;
19225;SDS011;9747;48.536;12.522;2023-04-12T10:02:59;1.10;;;1.00;;
19225;SDS011;9747;48.536;12.522;2023-04-12T10:05:27;1.10;;;0.93;;
19225;SDS011;9747;48.536;12.522;2023-04-12T10:07:59;1.23;;;1.05;;
19225;SDS011;9747;48.536;12.522;2023-04-12T10:10:28;1.10;;;1.00;;
19225;SDS011;9747;48.536;12.522;2023-04-12T10:12:56;2.20;;;1.00;;
19225;SDS011;9747;48.536;12.522;2023-04-12T10:15:24;1.40;;;1.10;;
19225;SDS011;9747;48.536;12.522;2023-04-12T10:17:55;2.47;;;1.05;;
19225;SDS011;9747;48.536;12.522;2023-04-12T10:20:23;1.35;;;1.20;;
19225;SDS011;9747;48.536;12.522;2023-04-12T10:22:52;1.17;;;1.08;;
19225;SDS011;9747;48.536;12.522;2023-04-12T10:25:24;0.88;;;0.88;;
19225;SDS011;9747;48.536;12.522;2023-04-12T10:27:54;1.08;;;0.98;;
19225;SDS011;9747;48.536;12.522;2023-04-12T10:30:23;1.25;;;0.90;;
19225;SDS011;9747;48.536;12.522;2023-04-12T10:33:10;0.90;;;0.90;;
19225;SDS011;9747;48.536;12.522;2023-04-12T10:35:48;0.80;;;0.80;;
19225;SDS011;9747;48.536;12.522;2023-04-12T10:38:18;0.82;;;0.80;;
19225;SDS011;9747;48.536;12.522;2023-04-12T10:41:09;2.90;;;1.00;;
19225;SDS011;9747;48.536;12.522;2023-04-12T10:43:39;0.90;;;0.90;;
19225;SDS011;9747;48.536;12.522;2023-04-12T10:46:07;2.67;;;1.00;;
19225;SDS011;9747;48.536;12.522;2023-04-12T10:49:14;1.10;;;0.82;;
19225;SDS011;9747;48.536;12.522;2023-04-12T10:54:40;1.52;;;1.15;;
19225;SDS011;9747;48.536;12.522;2023-04-12T11:00:09;5.40;;;1.17;;
19225;SDS011;9747;48.536;12.522;2023-04-12T11:05:55;8.95;;;1.38;;
19225;SDS011;9747;48.536;12.522;2023-04-12T11:08:43;7.90;;;1.60;;
19225;SDS011;9747;48.536;12.522;2023-04-12T11:11:23;8.57;;;1.83;;
19225;SDS011;9747;48.536;12.522;2023-04-12T11:13:54;4.10;;;1.60;;
19225;SDS011;9747;48.536;12.522;2023-04-12T11:16:23;7.50;;;1.80;;
19225;SDS011;9747;48.536;12.522;2023-04-12T11:18:50;10.52;;;2.20;;
19225;SDS011;9747;48.536;12.522;2023-04-12T11:21:20;17.88;;;2.83;;
19225;SDS011;9747;48.536;12.522;2023-04-12T11:23:47;14.73;;;2.50;;
19225;SDS011;9747;48.536;12.522;2023-04-12T11:26:17;13.57;;;2.85;;
19225;SDS011;9747;48.536;12.522;2023-04-12T11:28:46;13.20;;;2.90;;
19225;SDS011;9747;48.536;12.522;2023-04-12T11:31:20;11.45;;;3.13;;
19225;SDS011;9747;48.536;12.522;2023-04-12T11:33:47;11.18;;;2.60;;
19225;SDS011;9747;48.536;12.522;2023-04-12T11:36:15;16.85;;;2.90;;
19225;SDS011;9747;48.536;12.522;2023-04-12T11:38:43;14.20;;;2.90;;
19225;SDS011;9747;48.536;12.522;2023-04-12T11:41:13;14.70;;;3.08;;
19225;SDS011;9747;48.536;12.522;2023-04-12T11:43:40;13.50;;;2.85;;
19225;SDS011;9747;48.536;12.522;2023-04-12T11:46:08;10.35;;;2.63;;
19225;SDS011;9747;48.536;12.522;2023-04-12T11:48:37;8.85;;;2.78;;
19225;SDS011;9747;48.536;12.522;2023-04-12T11:51:17;13.65;;;2.70;;
19225;SDS011;9747;48.536;12.522;2023-04-12T11:53:49;11.88;;;2.85;;
19225;SDS011;9747;48.536;12.522;2023-04-12T11:56:18;6.32;;;2.70;;
19225;SDS011;9747;48.536;12.522;2023-04-12T11:58:46;7.97;;;2.30;;
19225;SDS011;9747;48.536;12.522;2023-04-12T12:01:14;9.40;;;2.83;;
19225;SDS011;9747;48.536;12.522;2023-04-12T12:03:43;6.60;;;2.30;;
19225;SDS011;9747;48.536;12.522;2023-04-12T12:06:11;4.65;;;2.03;;
19225;SDS011;9747;48.536;12.522;2023-04-12T12:08:38;5.68;;;2.13;;
19225;SDS011;9747;48.536;12.522;2023-04-12T12:11:06;5.70;;;2.30;;
19225;SDS011;9747;48.536;12.522;2023-04-12T12:13:43;5.57;;;2.20;;
19225;SDS011;9747;48.536;12.522;2023-04-12T12:16:11;5.05;;;1.90;;
19225;SDS011;9747;48.536;12.522;2023-04-12T12:18:38;4.40;;;2.20;;
19225;SDS011;9747;48.536;12.522;2023-04-12T12:21:08;4.00;;;2.25;;
19225;SDS011;9747;48.536;12.522;2023-04-12T12:23:36;5.82;;;2.22;;
19225;SDS011;9747;48.536;12.522;2023-04-12T12:26:04;6.05;;;2.10;;
19225;SDS011;9747;48.536;12.522;2023-04-12T12:28:35;6.35;;;2.15;;
19225;SDS011;9747;48.536;12.522;2023-04-12T12:31:04;8.55;;;2.22;;
19225;SDS011;9747;48.536;12.522;2023-04-12T12:33:35;3.60;;;1.95;;
19225;SDS011;9747;48.536;12.522;2023-04-12T12:36:03;4.93;;;1.98;;
19225;SDS011;9747;48.536;12.522;2023-04-12T12:38:34;4.57;;;1.75;;
19225;SDS011;9747;48.536;12.522;2023-04-12T12:41:15;4.47;;;1.83;;
19225;SDS011;9747;48.536;12.522;2023-04-12T12:43:44;4.07;;;1.83;;
19225;SDS011;9747;48.536;12.522;2023-04-12T12:46:11;5.93;;;1.88;;
19225;SDS011;9747;48.536;12.522;2023-04-12T12:48:39;4.55;;;2.17;;
19225;SDS011;9747;48.536;12.522;2023-04-12T12:51:07;3.22;;;1.83;;
19225;SDS011;9747;48.536;12.522;2023-04-12T12:53:36;3.95;;;1.98;;
19225;SDS011;9747;48.536;12.522;2023-04-12T12:56:05;4.45;;;1.80;;
19225;SDS011;9747;48.536;12.522;2023-04-12T12:58:34;3.65;;;1.73;;
19225;SDS011;9747;48.536;12.522;2023-04-12T13:01:01;4.25;;;1.88;;
19225;SDS011;9747;48.536;12.522;2023-04-12T13:03:29;2.70;;;1.63;;
19225;SDS011;9747;48.536;12.522;2023-04-12T13:05:57;2.63;;;1.60;;
19225;SDS011;9747;48.536;12.522;2023-04-12T13:08:25;2.42;;;1.60;;
19225;SDS011;9747;48.536;12.522;2023-04-12T13:10:54;4.80;;;1.90;;
19225;SDS011;9747;48.536;12.522;2023-04-12T13:13:21;2.15;;;1.48;;
19225;SDS011;9747;48.536;12.522;2023-04-12T13:15:49;1.58;;;1.48;;
19225;SDS011;9747;48.536;12.522;2023-04-12T13:18:16;3.78;;;2.53;;
19225;SDS011;9747;48.536;12.522;2023-04-12T13:20:44;3.15;;;1.50;;
19225;SDS011;9747;48.536;12.522;2023-04-12T13:23:12;3.88;;;1.55;;
19225;SDS011;9747;48.536;12.522;2023-04-12T13:25:40;3.22;;;1.40;;
19225;SDS011;9747;48.536;12.522;2023-04-12T13:28:09;3.03;;;1.50;;
19225;SDS011;9747;48.536;12.522;2023-04-12T13:30:37;2.53;;;1.77;;
19225;SDS011;9747;48.536;12.522;2023-04-12T13:33:04;3.17;;;1.45;;
19225;SDS011;9747;48.536;12.522;2023-04-12T13:35:32;2.67;;;1.35;;
19225;SDS011;9747;48.536;12.522;2023-04-12T13:38:00;2.70;;;1.40;;
19225;SDS011;9747;48.536;12.522;2023-04-12T13:40:27;1.60;;;1.20;;
19225;SDS011;9747;48.536;12.522;2023-04-12T13:42:54;2.67;;;1.50;;
19225;SDS011;9747;48.536;12.522;2023-04-12T13:45:24;2.35;;;1.38;;
19225;SDS011;9747;48.536;12.522;2023-04-12T13:47:51;2.17;;;1.38;;
19225;SDS011;9747;48.536;12.522;2023-04-12T13:50:19;2.03;;;1.30;;
19225;SDS011;9747;48.536;12.522;2023-04-12T13:52:46;2.60;;;1.60;;
19225;SDS011;9747;48.536;12.522;2023-04-12T13:55:14;2.08;;;1.13;;
19225;SDS011;9747;48.536;12.522;2023-04-12T13:57:41;2.78;;;1.35;;
19225;SDS011;9747;48.536;12.522;2023-04-12T14:00:09;3.22;;;1.88;;
19225;SDS011;9747;48.536;12.522;2023-04-12T14:02:40;1.60;;;1.50;;
19225;SDS011;9747;48.536;12.522;2023-04-12T14:05:08;1.75;;;1.30;;
19225;SDS011;9747;48.536;12.522;2023-04-12T14:07:36;2.20;;;1.33;;
19225;SDS011;9747;48.536;12.522;2023-04-12T14:10:04;2.30;;;1.40;;
19225;SDS011;9747;48.536;12.522;2023-04-12T14:12:33;2.33;;;1.27;;
19225;SDS011;9747;48.536;12.522;2023-04-12T14:15:00;1.42;;;1.20;;
19225;SDS011;9747;48.536;12.522;2023-04-12T14:17:28;1.60;;;1.15;;
19225;SDS011;9747;48.536;12.522;2023-04-12T14:19:58;2.80;;;1.20;;
19225;SDS011;9747;48.536;12.522;2023-04-12T14:22:25;1.33;;;1.10;;
19225;SDS011;9747;48.536;12.522;2023-04-12T14:24:53;1.10;;;1.00;;
19225;SDS011;9747;48.536;12.522;2023-04-12T14:27:20;2.25;;;1.40;;
19225;SDS011;9747;48.536;12.522;2023-04-12T14:29:47;1.20;;;1.10;;
19225;SDS011;9747;48.536;12.522;2023-04-12T14:32:15;3.35;;;1.27;;
19225;SDS011;9747;48.536;12.522;2023-04-12T14:34:43;1.17;;;1.00;;
19225;SDS011;9747;48.536;12.522;2023-04-12T14:37:11;1.27;;;1.10;;
19225;SDS011;9747;48.536;12.522;2023-04-12T14:39:40;2.42;;;1.40;;
19225;SDS011;9747;48.536;12.522;2023-04-12T14:42:08;2.33;;;2.00;;
19225;SDS011;9747;48.536;12.522;2023-04-12T14:44:35;2.67;;;2.47;;
19225;SDS011;9747;48.536;12.522;2023-04-12T14:47:03;3.65;;;1.85;;
19225;SDS011;9747;48.536;12.522;2023-04-12T14:49:30;2.25;;;1.60;;
19225;SDS011;9747;48.536;12.522;2023-04-12T14:51:58;2.05;;;1.55;;
19225;SDS011;9747;48.536;12.522;2023-04-12T14:54:27;1.88;;;1.60;;
19225;SDS011;9747;48.536;12.522;2023-04-12T14:56:54;3.30;;;1.50;;
19225;SDS011;9747;48.536;12.522;2023-04-12T14:59:22;3.90;;;1.48;;
19225;SDS011;9747;48.536;12.522;2023-04-12T15:01:51;1.70;;;1.60;;
19225;SDS011;9747;48.536;12.522;2023-04-12T15:04:18;1.95;;;1.30;;
19225;SDS011;9747;48.536;12.522;2023-04-12T15:06:46;1.90;;;1.23;;
19225;SDS011;9747;48.536;12.522;2023-04-12T15:09:13;2.65;;;1.35;;
19225;SDS011;9747;48.536;12.522;2023-04-12T15:11:43;1.98;;;1.10;;